sensor_id;sensor_type;location;lat;lon;timestamp;pressure;altitude;pressure_sealevel;temperature;humidity
9905;BME280;4991;43.566;27.820;2022-07-21T00:00:32;98719.84;;;19.86;100.00
9905;BME280;4991;43.566;27.820;2022-07-21T00:02:58;98716.63;;;19.84;100.00
9905;BME280;4991;43.566;27.820;2022-07-21T00:05:24;98714.72;;;19.88;100.00
9905;BME280;4991;43.566;27.820;2022-07-21T00:07:51;98717.78;;;19.83;100.00
9905;BME280;4991;43.566;27.820;2022-07-21T00:10:18;98709.19;;;19.88;100.00
9905;BME280;4991;43.566;27.820;2022-07-21T00:12:44;98715.00;;;19.83;100.00
9905;BME280;4991;43.566;27.820;2022-07-21T00:15:12;98712.13;;;19.76;100.00
9905;BME280;4991;43.566;27.820;2022-07-21T00:17:38;98710.09;;;19.73;100.00
9905;BME280;4991;43.566;27.820;2022-07-21T00:20:05;98701.69;;;19.66;100.00
9905;BME280;4991;43.566;27.820;2022-07-21T00:22:31;98705.22;;;19.67;100.00
9905;BME280;4991;43.566;27.820;2022-07-21T00:24:57;98702.75;;;19.62;100.00
9905;BME280;4991;43.566;27.820;2022-07-21T00:27:24;98701.59;;;19.63;100.00
9905;BME280;4991;43.566;27.820;2022-07-21T00:29:50;98703.19;;;19.64;100.00
9905;BME280;4991;43.566;27.820;2022-07-21T00:32:16;98704.81;;;19.65;100.00
9905;BME280;4991;43.566;27.820;2022-07-21T00:34:42;98700.44;;;19.64;100.00
9905;BME280;4991;43.566;27.820;2022-07-21T00:37:10;98702.06;;;19.65;100.00
9905;BME280;4991;43.566;27.820;2022-07-21T00:39:36;98694.13;;;19.63;100.00
9905;BME280;4991;43.566;27.820;2022-07-21T00:42:02;98698.56;;;19.68;100.00
9905;BME280;4991;43.566;27.820;2022-07-21T00:44:28;98695.66;;;19.61;100.00
9905;BME280;4991;43.566;27.820;2022-07-21T00:46:54;98699.69;;;19.67;100.00
9905;BME280;4991;43.566;27.820;2022-07-21T00:49:20;98693.75;;;19.65;100.00
9905;BME280;4991;43.566;27.820;2022-07-21T00:51:48;98687.28;;;19.76;100.00
9905;BME280;4991;43.566;27.820;2022-07-21T00:54:16;98688.41;;;19.75;100.00
9905;BME280;4991;43.566;27.820;2022-07-21T00:56:42;98682.16;;;19.78;100.00
9905;BME280;4991;43.566;27.820;2022-07-21T00:59:10;98674.38;;;19.84;100.00
9905;BME280;4991;43.566;27.820;2022-07-21T01:01:36;98676.69;;;19.82;100.00
9905;BME280;4991;43.566;27.820;2022-07-21T01:04:01;98676.31;;;19.83;100.00
9905;BME280;4991;43.566;27.820;2022-07-21T01:06:27;98675.63;;;19.86;100.00
9905;BME280;4991;43.566;27.820;2022-07-21T01:08:53;98667.31;;;19.86;100.00
9905;BME280;4991;43.566;27.820;2022-07-21T01:11:24;98674.44;;;19.87;100.00
9905;BME280;4991;43.566;27.820;2022-07-21T01:13:50;98661.44;;;19.88;100.00
9905;BME280;4991;43.566;27.820;2022-07-21T01:16:16;98668.66;;;19.96;100.00
9905;BME280;4991;43.566;27.820;2022-07-21T01:18:42;98667.50;;;19.97;100.00
9905;BME280;4991;43.566;27.820;2022-07-21T01:21:27;98661.13;;;19.93;100.00
9905;BME280;4991;43.566;27.820;2022-07-21T01:23:54;98667.06;;;19.95;100.00
9905;BME280;4991;43.566;27.820;2022-07-21T01:26:20;98675.66;;;19.90;100.00
9905;BME280;4991;43.566;27.820;2022-07-21T01:28:45;98675.94;;;19.85;100.00
9905;BME280;4991;43.566;27.820;2022-07-21T01:31:11;98674.38;;;19.84;100.00
9905;BME280;4991;43.566;27.820;2022-07-21T01:33:37;98671.97;;;19.82;100.00
9905;BME280;4991;43.566;27.820;2022-07-21T01:36:03;98674.66;;;19.79;100.00
9905;BME280;4991;43.566;27.820;2022-07-21T01:38:28;98677.22;;;19.68;100.00
9905;BME280;4991;43.566;27.820;2022-07-21T01:41:12;98672.88;;;19.67;100.00
9905;BME280;4991;43.566;27.820;2022-07-21T01:43:59;98664.72;;;19.74;100.00
9905;BME280;4991;43.566;27.820;2022-07-21T01:46:25;98664.72;;;19.74;100.00
9905;BME280;4991;43.566;27.820;2022-07-21T01:48:51;98662.41;;;19.76;100.00
9905;BME280;4991;43.566;27.820;2022-07-21T01:51:16;98653.44;;;19.83;100.00
9905;BME280;4991;43.566;27.820;2022-07-21T01:53:42;98654.78;;;19.92;100.00
9905;BME280;4991;43.566;27.820;2022-07-21T01:56:08;98661.59;;;19.98;100.00
9905;BME280;4991;43.566;27.820;2022-07-21T01:58:34;98652.25;;;20.06;100.00
9905;BME280;4991;43.566;27.820;2022-07-21T02:00:59;98648.72;;;20.06;100.00
9905;BME280;4991;43.566;27.820;2022-07-21T02:03:25;98650.88;;;20.16;100.00
9905;BME280;4991;43.566;27.820;2022-07-21T02:05:51;98653.66;;;20.16;100.00
9905;BME280;4991;43.566;27.820;2022-07-21T02:08:16;98645.03;;;20.21;100.00
9905;BME280;4991;43.566;27.820;2022-07-21T02:10:42;98651.59;;;20.35;100.00
9905;BME280;4991;43.566;27.820;2022-07-21T02:13:08;98649.00;;;20.46;100.00
9905;BME280;4991;43.566;27.820;2022-07-21T02:15:33;98649.13;;;20.57;100.00
9905;BME280;4991;43.566;27.820;2022-07-21T02:17:59;98652.06;;;20.67;100.00
9905;BME280;4991;43.566;27.820;2022-07-21T02:20:25;98645.78;;;20.70;100.00
9905;BME280;4991;43.566;27.820;2022-07-21T02:22:52;98652.50;;;20.69;100.00
9905;BME280;4991;43.566;27.820;2022-07-21T02:25:17;98651.81;;;20.76;100.00
9905;BME280;4991;43.566;27.820;2022-07-21T02:27:44;98645.91;;;20.77;100.00
9905;BME280;4991;43.566;27.820;2022-07-21T02:30:10;98633.31;;;20.83;100.00
9905;BME280;4991;43.566;27.820;2022-07-21T02:32:36;98645.63;;;20.86;100.00
9905;BME280;4991;43.566;27.820;2022-07-21T02:35:02;98645.28;;;20.91;100.00
9905;BME280;4991;43.566;27.820;2022-07-21T02:37:28;98642.16;;;20.92;100.00
9905;BME280;4991;43.566;27.820;2022-07-21T02:39:54;98645.28;;;20.91;100.00
9905;BME280;4991;43.566;27.820;2022-07-21T02:42:19;98644.06;;;20.88;100.00
9905;BME280;4991;43.566;27.820;2022-07-21T02:44:45;98660.66;;;20.88;100.00
9905;BME280;4991;43.566;27.820;2022-07-21T02:47:11;98650.34;;;20.85;100.00
9905;BME280;4991;43.566;27.820;2022-07-21T02:49:37;98660.25;;;20.86;100.00
9905;BME280;4991;43.566;27.820;2022-07-21T02:52:03;98664.25;;;20.89;100.00
9905;BME280;4991;43.566;27.820;2022-07-21T02:54:29;98657.06;;;20.84;100.00
9905;BME280;4991;43.566;27.820;2022-07-21T02:56:55;98663.44;;;20.88;100.00
9905;BME280;4991;43.566;27.820;2022-07-21T02:59:20;98659.09;;;20.87;100.00
9905;BME280;4991;43.566;27.820;2022-07-21T03:01:46;98666.56;;;20.87;100.00
9905;BME280;4991;43.566;27.820;2022-07-21T03:04:12;98665.41;;;20.88;100.00
9905;BME280;4991;43.566;27.820;2022-07-21T03:06:38;98663.38;;;20.85;100.00
9905;BME280;4991;43.566;27.820;2022-07-21T03:09:04;98666.03;;;20.74;100.00
9905;BME280;4991;43.566;27.820;2022-07-21T03:11:30;98658.03;;;20.69;100.00
9905;BME280;4991;43.566;27.820;2022-07-21T03:13:56;98664.28;;;20.63;100.00
9905;BME280;4991;43.566;27.820;2022-07-21T03:16:21;98659.13;;;20.65;100.00
9905;BME280;4991;43.566;27.820;2022-07-21T03:18:47;98669.44;;;20.64;100.00
9905;BME280;4991;43.566;27.820;2022-07-21T03:21:13;98672.50;;;20.59;100.00
9905;BME280;4991;43.566;27.820;2022-07-21T03:23:38;98674.53;;;20.62;100.00
9905;BME280;4991;43.566;27.820;2022-07-21T03:26:04;98673.25;;;20.56;100.00
9905;BME280;4991;43.566;27.820;2022-07-21T03:28:30;98676.38;;;20.54;100.00
9905;BME280;4991;43.566;27.820;2022-07-21T03:30:55;98674.47;;;20.59;100.00
9905;BME280;4991;43.566;27.820;2022-07-21T03:33:21;98682.81;;;20.62;100.00
9905;BME280;4991;43.566;27.820;2022-07-21T03:35:47;98691.13;;;20.62;100.00
9905;BME280;4991;43.566;27.820;2022-07-21T03:38:12;98687.94;;;20.60;100.00
9905;BME280;4991;43.566;27.820;2022-07-21T03:40:38;98684.34;;;20.60;100.00
9905;BME280;4991;43.566;27.820;2022-07-21T03:43:06;98688.41;;;20.66;100.00
9905;BME280;4991;43.566;27.820;2022-07-21T03:45:33;98693.59;;;20.67;100.00
9905;BME280;4991;43.566;27.820;2022-07-21T03:48:01;98694.72;;;20.66;100.00
9905;BME280;4991;43.566;27.820;2022-07-21T03:50:28;98683.34;;;20.71;100.00
9905;BME280;4991;43.566;27.820;2022-07-21T03:52:54;98695.34;;;20.79;100.00
9905;BME280;4991;43.566;27.820;2022-07-21T03:55:20;98694.91;;;20.77;100.00
9905;BME280;4991;43.566;27.820;2022-07-21T03:57:58;98687.03;;;20.79;100.00
9905;BME280;4991;43.566;27.820;2022-07-21T04:00:32;98688.72;;;20.87;100.00
9905;BME280;4991;43.566;27.820;2022-07-21T04:02:58;98687.97;;;20.90;100.00
9905;BME280;4991;43.566;27.820;2022-07-21T04:05:25;98690.78;;;20.93;100.00
9905;BME280;4991;43.566;27.820;2022-07-21T04:07:52;98700.44;;;21.03;100.00
9905;BME280;4991;43.566;27.820;2022-07-21T04:10:21;98703.22;;;21.03;100.00
9905;BME280;4991;43.566;27.820;2022-07-21T04:12:48;98705.25;;;21.06;100.00
9905;BME280;4991;43.566;27.820;2022-07-21T04:15:14;98704.94;;;21.14;100.00
9905;BME280;4991;43.566;27.820;2022-07-21T04:17:40;98709.66;;;21.10;100.00
9905;BME280;4991;43.566;27.820;2022-07-21T04:20:07;98710.50;;;21.14;100.00
9905;BME280;4991;43.566;27.820;2022-07-21T04:22:33;98705.75;;;21.15;100.00
9905;BME280;4991;43.566;27.820;2022-07-21T04:24:59;98711.31;;;21.15;100.00
9905;BME280;4991;43.566;27.820;2022-07-21T04:27:26;98708.56;;;21.18;100.00
9905;BME280;4991;43.566;27.820;2022-07-21T04:29:52;98712.22;;;21.26;100.00
9905;BME280;4991;43.566;27.820;2022-07-21T04:32:19;98706.41;;;21.34;100.00
9905;BME280;4991;43.566;27.820;2022-07-21T04:34:45;98713.13;;;21.33;100.00
9905;BME280;4991;43.566;27.820;2022-07-21T04:37:10;98703.34;;;21.43;100.00
9905;BME280;4991;43.566;27.820;2022-07-21T04:39:36;98713.72;;;21.49;100.00
9905;BME280;4991;43.566;27.820;2022-07-21T04:42:02;98705.06;;;21.54;100.00
9905;BME280;4991;43.566;27.820;2022-07-21T04:44:28;98712.25;;;21.59;100.00
9905;BME280;4991;43.566;27.820;2022-07-21T04:46:53;98718.72;;;21.70;100.00
9905;BME280;4991;43.566;27.820;2022-07-21T04:49:19;98720.75;;;21.73;100.00
9905;BME280;4991;43.566;27.820;2022-07-21T04:51:44;98727.16;;;21.77;100.00
9905;BME280;4991;43.566;27.820;2022-07-21T04:54:10;98726.03;;;21.82;100.00
9905;BME280;4991;43.566;27.820;2022-07-21T04:56:40;98732.75;;;21.84;100.00
9905;BME280;4991;43.566;27.820;2022-07-21T04:59:06;98729.69;;;21.93;100.00
9905;BME280;4991;43.566;27.820;2022-07-21T05:01:31;98739.63;;;21.94;100.00
9905;BME280;4991;43.566;27.820;2022-07-21T05:03:57;98742.41;;;21.94;100.00
9905;BME280;4991;43.566;27.820;2022-07-21T05:06:23;98748.41;;;22.03;100.00
9905;BME280;4991;43.566;27.820;2022-07-21T05:08:48;98749.28;;;22.07;100.00
9905;BME280;4991;43.566;27.820;2022-07-21T05:11:14;98747.75;;;22.13;100.00
9905;BME280;4991;43.566;27.820;2022-07-21T05:13:40;98745.78;;;22.13;100.00
9905;BME280;4991;43.566;27.820;2022-07-21T05:16:05;98748.53;;;22.13;100.00
9905;BME280;4991;43.566;27.820;2022-07-21T05:18:32;98749.41;;;22.21;100.00
9905;BME280;4991;43.566;27.820;2022-07-21T05:20:57;98748.41;;;22.39;100.00
9905;BME280;4991;43.566;27.820;2022-07-21T05:23:23;98758.09;;;22.56;100.00
9905;BME280;4991;43.566;27.820;2022-07-21T05:25:49;98763.75;;;22.66;100.00
9905;BME280;4991;43.566;27.820;2022-07-21T05:28:14;98761.91;;;22.84;100.00
9905;BME280;4991;43.566;27.820;2022-07-21T05:30:40;98761.22;;;22.98;100.00
9905;BME280;4991;43.566;27.820;2022-07-21T05:33:05;98759.34;;;23.16;100.00
9905;BME280;4991;43.566;27.820;2022-07-21T05:35:31;98770.13;;;23.25;100.00
9905;BME280;4991;43.566;27.820;2022-07-21T05:37:57;98763.81;;;23.35;100.00
9905;BME280;4991;43.566;27.820;2022-07-21T05:40:23;98770.63;;;23.41;100.00
9905;BME280;4991;43.566;27.820;2022-07-21T05:42:48;98766.28;;;23.50;100.00
9905;BME280;4991;43.566;27.820;2022-07-21T05:45:14;98763.94;;;23.56;100.00
9905;BME280;4991;43.566;27.820;2022-07-21T05:47:41;98766.34;;;23.61;100.00
9905;BME280;4991;43.566;27.820;2022-07-21T05:50:07;98765.59;;;23.67;100.00
9905;BME280;4991;43.566;27.820;2022-07-21T05:52:33;98775.13;;;23.70;100.00
9905;BME280;4991;43.566;27.820;2022-07-21T05:54:59;98778.72;;;23.74;100.00
9905;BME280;4991;43.566;27.820;2022-07-21T05:57:25;98779.91;;;23.69;100.00
9905;BME280;4991;43.566;27.820;2022-07-21T05:59:50;98787.88;;;23.81;100.00
9905;BME280;4991;43.566;27.820;2022-07-21T06:02:16;98785.56;;;23.94;100.00
9905;BME280;4991;43.566;27.820;2022-07-21T06:04:41;98789.19;;;24.05;100.00
9905;BME280;4991;43.566;27.820;2022-07-21T06:07:07;98792.03;;;24.15;100.00
9905;BME280;4991;43.566;27.820;2022-07-21T06:09:33;98781.66;;;24.16;100.00
9905;BME280;4991;43.566;27.820;2022-07-21T06:11:58;98784.03;;;24.07;100.00
9905;BME280;4991;43.566;27.820;2022-07-21T06:14:24;98788.47;;;24.26;100.00
9905;BME280;4991;43.566;27.820;2022-07-21T06:16:50;98787.69;;;24.39;100.00
9905;BME280;4991;43.566;27.820;2022-07-21T06:19:15;98783.72;;;24.47;100.00
9905;BME280;4991;43.566;27.820;2022-07-21T06:21:41;98787.72;;;24.60;100.00
9905;BME280;4991;43.566;27.820;2022-07-21T06:24:08;98781.34;;;24.67;100.00
9905;BME280;4991;43.566;27.820;2022-07-21T06:26:34;98781.38;;;24.81;100.00
9905;BME280;4991;43.566;27.820;2022-07-21T06:29:00;98785.38;;;24.94;100.00
9905;BME280;4991;43.566;27.820;2022-07-21T06:31:25;98784.94;;;24.99;100.00
9905;BME280;4991;43.566;27.820;2022-07-21T06:33:51;98787.72;;;24.99;100.00
9905;BME280;4991;43.566;27.820;2022-07-21T06:36:17;98792.91;;;25.11;100.00
9905;BME280;4991;43.566;27.820;2022-07-21T06:38:43;98782.97;;;25.10;100.00
9905;BME280;4991;43.566;27.820;2022-07-21T06:41:10;98791.31;;;25.10;100.00
9905;BME280;4991;43.566;27.820;2022-07-21T06:43:37;98780.53;;;25.26;100.00
9905;BME280;4991;43.566;27.820;2022-07-21T06:46:02;98785.31;;;25.32;100.00
9905;BME280;4991;43.566;27.820;2022-07-21T06:48:28;98773.78;;;25.41;100.00
9905;BME280;4991;43.566;27.820;2022-07-21T06:50:55;98773.34;;;25.46;100.00
9905;BME280;4991;43.566;27.820;2022-07-21T06:53:21;98778.09;;;25.56;100.00
9905;BME280;4991;43.566;27.820;2022-07-21T06:55:47;98782.88;;;25.63;100.00
9905;BME280;4991;43.566;27.820;2022-07-21T06:58:20;98774.50;;;25.59;100.00
9905;BME280;4991;43.566;27.820;2022-07-21T07:00:46;98776.47;;;25.69;100.00
9905;BME280;4991;43.566;27.820;2022-07-21T07:03:13;98782.41;;;25.82;100.00
9905;BME280;4991;43.566;27.820;2022-07-21T07:05:40;98773.63;;;25.87;100.00
9905;BME280;4991;43.566;27.820;2022-07-21T07:08:06;98775.19;;;25.88;100.00
9905;BME280;4991;43.566;27.820;2022-07-21T07:10:32;98764.34;;;26.00;100.00
9905;BME280;4991;43.566;27.820;2022-07-21T07:12:58;98774.28;;;26.12;100.00
9905;BME280;4991;43.566;27.820;2022-07-21T07:15:23;98785.84;;;26.14;100.00
9905;BME280;4991;43.566;27.820;2022-07-21T07:17:50;98776.22;;;26.22;100.00
9905;BME280;4991;43.566;27.820;2022-07-21T07:20:16;98769.78;;;26.32;100.00
9905;BME280;4991;43.566;27.820;2022-07-21T07:22:41;98773.78;;;26.34;100.00
9905;BME280;4991;43.566;27.820;2022-07-21T07:25:08;98770.19;;;26.30;100.00
9905;BME280;4991;43.566;27.820;2022-07-21T07:27:34;98778.94;;;26.39;100.00
9905;BME280;4991;43.566;27.820;2022-07-21T07:30:00;98773.38;;;26.36;100.00
9905;BME280;4991;43.566;27.820;2022-07-21T07:32:25;98771.38;;;26.36;100.00
9905;BME280;4991;43.566;27.820;2022-07-21T07:34:51;98774.13;;;26.40;100.00
9905;BME280;4991;43.566;27.820;2022-07-21T07:37:16;98776.53;;;26.41;100.00
9905;BME280;4991;43.566;27.820;2022-07-21T07:39:42;98776.97;;;26.33;100.00
9905;BME280;4991;43.566;27.820;2022-07-21T07:42:08;98783.66;;;26.46;100.00
9905;BME280;4991;43.566;27.820;2022-07-21T07:44:33;98768.81;;;26.59;100.00
9905;BME280;4991;43.566;27.820;2022-07-21T07:46:59;98779.25;;;26.48;100.00
9905;BME280;4991;43.566;27.820;2022-07-21T07:49:29;98780.91;;;26.42;100.00
9905;BME280;4991;43.566;27.820;2022-07-21T07:51:55;98778.91;;;26.43;100.00
9905;BME280;4991;43.566;27.820;2022-07-21T07:54:21;98781.59;;;26.53;100.00
9905;BME280;4991;43.566;27.820;2022-07-21T07:56:46;98776.00;;;26.57;100.00
9905;BME280;4991;43.566;27.820;2022-07-21T07:59:12;98784.78;;;26.55;100.00
9905;BME280;4991;43.566;27.820;2022-07-21T08:01:38;98788.38;;;26.59;100.00
9905;BME280;4991;43.566;27.820;2022-07-21T08:04:03;98781.16;;;26.62;100.00
9905;BME280;4991;43.566;27.820;2022-07-21T08:06:29;98772.34;;;26.71;100.00
9905;BME280;4991;43.566;27.820;2022-07-21T08:08:55;98778.59;;;26.85;100.00
9905;BME280;4991;43.566;27.820;2022-07-21T08:11:21;98780.97;;;26.90;100.00
9905;BME280;4991;43.566;27.820;2022-07-21T08:13:46;98792.00;;;27.08;100.00
9905;BME280;4991;43.566;27.820;2022-07-21T08:16:12;98781.97;;;27.10;100.00
9905;BME280;4991;43.566;27.820;2022-07-21T08:18:41;98780.03;;;27.04;100.00
9905;BME280;4991;43.566;27.820;2022-07-21T08:21:08;98779.22;;;27.07;99.94
9905;BME280;4991;43.566;27.820;2022-07-21T08:23:33;98775.53;;;27.17;100.00
9905;BME280;4991;43.566;27.820;2022-07-21T08:25:59;98774.97;;;27.36;100.00
9905;BME280;4991;43.566;27.820;2022-07-21T08:28:24;98778.53;;;27.36;97.25
9905;BME280;4991;43.566;27.820;2022-07-21T08:30:50;98773.06;;;27.22;97.08
9905;BME280;4991;43.566;27.820;2022-07-21T08:33:16;98769.09;;;27.20;96.70
9905;BME280;4991;43.566;27.820;2022-07-21T08:35:41;98775.72;;;27.40;97.61
9905;BME280;4991;43.566;27.820;2022-07-21T08:38:10;98766.88;;;27.45;95.77
9905;BME280;4991;43.566;27.820;2022-07-21T08:40:41;98767.28;;;27.43;95.46
9905;BME280;4991;43.566;27.820;2022-07-21T08:43:08;98774.81;;;27.50;96.00
9905;BME280;4991;43.566;27.820;2022-07-21T08:45:34;98774.13;;;27.39;96.54
9905;BME280;4991;43.566;27.820;2022-07-21T08:48:01;98766.44;;;27.46;96.62
9905;BME280;4991;43.566;27.820;2022-07-21T08:50:29;98776.56;;;27.70;96.60
9905;BME280;4991;43.566;27.820;2022-07-21T08:52:55;98773.53;;;27.88;96.02
9905;BME280;4991;43.566;27.820;2022-07-21T08:55:35;98794.19;;;28.01;94.51
9905;BME280;4991;43.566;27.820;2022-07-21T08:58:02;98784.59;;;28.02;94.30
9905;BME280;4991;43.566;27.820;2022-07-21T09:00:28;98766.06;;;28.12;94.99
9905;BME280;4991;43.566;27.820;2022-07-21T09:03:23;98778.06;;;28.12;94.06
9905;BME280;4991;43.566;27.820;2022-07-21T09:06:14;98777.31;;;28.08;92.03
9905;BME280;4991;43.566;27.820;2022-07-21T09:13:42;98770.97;;;28.31;90.35
9905;BME280;4991;43.566;27.820;2022-07-21T09:16:08;98768.78;;;28.45;88.49
9905;BME280;4991;43.566;27.820;2022-07-21T09:18:46;98760.66;;;28.54;90.39
9905;BME280;4991;43.566;27.820;2022-07-21T09:21:12;98768.00;;;28.71;86.41
9905;BME280;4991;43.566;27.820;2022-07-21T09:23:40;98766.63;;;28.56;85.76
9905;BME280;4991;43.566;27.820;2022-07-21T09:26:06;98758.41;;;28.42;88.36
9905;BME280;4991;43.566;27.820;2022-07-21T09:28:31;98760.84;;;28.40;89.66
9905;BME280;4991;43.566;27.820;2022-07-21T09:31:01;98772.19;;;28.30;88.23
9905;BME280;4991;43.566;27.820;2022-07-21T09:33:36;98777.19;;;28.19;88.24
9905;BME280;4991;43.566;27.820;2022-07-21T09:36:06;98765.66;;;28.40;90.71
9905;BME280;4991;43.566;27.820;2022-07-21T09:38:37;98772.06;;;28.67;88.19
9905;BME280;4991;43.566;27.820;2022-07-21T09:41:14;98772.91;;;28.64;85.60
9905;BME280;4991;43.566;27.820;2022-07-21T09:43:44;98771.66;;;28.68;86.88
9905;BME280;4991;43.566;27.820;2022-07-21T09:46:16;98764.13;;;28.88;84.48
9905;BME280;4991;43.566;27.820;2022-07-21T09:48:44;98765.38;;;29.07;82.69
9905;BME280;4991;43.566;27.820;2022-07-21T09:51:30;98770.31;;;29.85;77.66
9905;BME280;4991;43.566;27.820;2022-07-21T09:53:57;98758.56;;;30.97;72.24
9905;BME280;4991;43.566;27.820;2022-07-21T09:56:26;98753.75;;;32.12;65.09
9905;BME280;4991;43.566;27.820;2022-07-21T09:58:54;98747.34;;;32.99;61.61
9905;BME280;4991;43.566;27.820;2022-07-21T10:01:20;98746.22;;;34.39;53.55
9905;BME280;4991;43.566;27.820;2022-07-21T10:03:48;98757.34;;;33.59;53.92
9905;BME280;4991;43.566;27.820;2022-07-21T10:06:18;98773.25;;;33.66;51.87
9905;BME280;4991;43.566;27.820;2022-07-21T10:08:45;98776.06;;;34.40;51.04
9905;BME280;4991;43.566;27.820;2022-07-21T10:11:11;98771.53;;;34.73;47.88
9905;BME280;4991;43.566;27.820;2022-07-21T10:13:38;98754.41;;;35.61;45.37
9905;BME280;4991;43.566;27.820;2022-07-21T10:16:05;98757.72;;;36.05;44.82
9905;BME280;4991;43.566;27.820;2022-07-21T10:18:35;98771.09;;;35.77;45.35
9905;BME280;4991;43.566;27.820;2022-07-21T10:24:10;98761.44;;;36.71;42.49
9905;BME280;4991;43.566;27.820;2022-07-21T10:26:37;98758.88;;;36.82;42.04
9905;BME280;4991;43.566;27.820;2022-07-21T10:29:03;98762.03;;;37.07;40.41
9905;BME280;4991;43.566;27.820;2022-07-21T10:31:28;98760.72;;;35.92;42.09
9905;BME280;4991;43.566;27.820;2022-07-21T10:33:57;98747.13;;;35.15;43.08
9905;BME280;4991;43.566;27.820;2022-07-21T10:47:19;98754.47;;;34.46;43.37
9905;BME280;4991;43.566;27.820;2022-07-21T10:49:49;98751.22;;;35.05;43.25
9905;BME280;4991;43.566;27.820;2022-07-21T10:57:39;98757.09;;;35.65;39.37
9905;BME280;4991;43.566;27.820;2022-07-21T11:02:46;98754.91;;;36.47;37.04
9905;BME280;4991;43.566;27.820;2022-07-21T11:05:14;98759.00;;;36.55;36.46
9905;BME280;4991;43.566;27.820;2022-07-21T11:10:36;98754.88;;;35.78;37.55
9905;BME280;4991;43.566;27.820;2022-07-21T11:13:02;98746.16;;;36.26;36.80
9905;BME280;4991;43.566;27.820;2022-07-21T11:15:44;98748.00;;;37.51;35.37
9905;BME280;4991;43.566;27.820;2022-07-21T11:18:11;98756.31;;;37.78;34.64
9905;BME280;4991;43.566;27.820;2022-07-21T11:20:36;98767.97;;;36.53;34.77
9905;BME280;4991;43.566;27.820;2022-07-21T11:23:02;98763.13;;;37.33;34.58
9905;BME280;4991;43.566;27.820;2022-07-21T11:25:34;98762.81;;;36.43;35.07
9905;BME280;4991;43.566;27.820;2022-07-21T11:28:00;98765.03;;;36.29;36.36
9905;BME280;4991;43.566;27.820;2022-07-21T11:30:26;98759.78;;;37.59;33.89
9905;BME280;4991;43.566;27.820;2022-07-21T11:32:52;98759.56;;;37.47;33.54
9905;BME280;4991;43.566;27.820;2022-07-21T11:35:17;98768.03;;;36.35;34.19
9905;BME280;4991;43.566;27.820;2022-07-21T11:37:45;98772.75;;;36.20;34.12
9905;BME280;4991;43.566;27.820;2022-07-21T11:40:17;98769.38;;;36.58;34.77
9905;BME280;4991;43.566;27.820;2022-07-21T11:42:46;98763.28;;;36.74;34.04
9905;BME280;4991;43.566;27.820;2022-07-21T11:45:14;98762.63;;;37.59;32.43
9905;BME280;4991;43.566;27.820;2022-07-21T11:47:40;98761.50;;;39.16;30.04
9905;BME280;4991;43.566;27.820;2022-07-21T11:50:08;98769.09;;;39.85;28.52
9905;BME280;4991;43.566;27.820;2022-07-21T11:52:36;98763.44;;;38.90;28.76
9905;BME280;4991;43.566;27.820;2022-07-21T11:55:07;98764.97;;;38.71;29.13
9905;BME280;4991;43.566;27.820;2022-07-21T11:57:33;98768.81;;;36.77;30.65
9905;BME280;4991;43.566;27.820;2022-07-21T11:59:59;98757.13;;;36.43;31.86
9905;BME280;4991;43.566;27.820;2022-07-21T12:02:29;98763.91;;;37.10;29.89
9905;BME280;4991;43.566;27.820;2022-07-21T12:05:00;98759.63;;;35.72;31.29
9905;BME280;4991;43.566;27.820;2022-07-21T12:07:27;98752.84;;;36.56;31.61
9905;BME280;4991;43.566;27.820;2022-07-21T12:09:56;98752.63;;;38.16;28.99
9905;BME280;4991;43.566;27.820;2022-07-21T12:12:42;98751.44;;;38.51;28.61
9905;BME280;4991;43.566;27.820;2022-07-21T12:15:19;98758.22;;;37.96;28.40
9905;BME280;4991;43.566;27.820;2022-07-21T12:17:53;98759.53;;;37.71;29.26
9905;BME280;4991;43.566;27.820;2022-07-21T12:20:36;98759.41;;;38.33;28.22
9905;BME280;4991;43.566;27.820;2022-07-21T12:23:20;98753.31;;;38.40;28.00
9905;BME280;4991;43.566;27.820;2022-07-21T12:28:14;98741.81;;;38.98;27.69
9905;BME280;4991;43.566;27.820;2022-07-21T12:30:49;98749.25;;;39.30;27.05
9905;BME280;4991;43.566;27.820;2022-07-21T12:33:20;98743.84;;;39.32;27.26
9905;BME280;4991;43.566;27.820;2022-07-21T12:36:08;98751.91;;;39.54;26.72
9905;BME280;4991;43.566;27.820;2022-07-21T12:38:40;98739.78;;;40.05;26.42
9905;BME280;4991;43.566;27.820;2022-07-21T12:41:07;98732.44;;;39.52;26.13
9905;BME280;4991;43.566;27.820;2022-07-21T12:43:34;98729.19;;;40.11;26.16
9905;BME280;4991;43.566;27.820;2022-07-21T12:46:13;98735.22;;;39.47;26.62
9905;BME280;4991;43.566;27.820;2022-07-21T12:48:40;98734.72;;;38.74;27.04
9905;BME280;4991;43.566;27.820;2022-07-21T12:56:08;98733.44;;;39.49;26.37
9905;BME280;4991;43.566;27.820;2022-07-21T12:58:35;98729.72;;;39.43;26.34
9905;BME280;4991;43.566;27.820;2022-07-21T13:01:02;98734.75;;;38.59;27.03
9905;BME280;4991;43.566;27.820;2022-07-21T13:03:30;98734.09;;;38.35;27.21
9905;BME280;4991;43.566;27.820;2022-07-21T13:05:56;98728.03;;;39.11;26.28
9905;BME280;4991;43.566;27.820;2022-07-21T13:08:22;98726.41;;;38.90;26.48
9905;BME280;4991;43.566;27.820;2022-07-21T13:10:47;98729.81;;;38.94;26.69
9905;BME280;4991;43.566;27.820;2022-07-21T13:13:13;98726.56;;;40.07;25.91
9905;BME280;4991;43.566;27.820;2022-07-21T13:15:39;98727.50;;;40.55;25.41
9905;BME280;4991;43.566;27.820;2022-07-21T13:18:04;98722.56;;;39.73;25.92
9905;BME280;4991;43.566;27.820;2022-07-21T13:20:30;98737.09;;;37.73;27.69
9905;BME280;4991;43.566;27.820;2022-07-21T13:22:56;98728.59;;;38.02;27.49
9905;BME280;4991;43.566;27.820;2022-07-21T13:25:21;98727.91;;;38.07;27.93
9905;BME280;4991;43.566;27.820;2022-07-21T13:27:47;98724.28;;;38.85;27.11
9905;BME280;4991;43.566;27.820;2022-07-21T13:30:13;98716.44;;;37.87;27.82
9905;BME280;4991;43.566;27.820;2022-07-21T13:32:39;98732.19;;;38.46;27.23
9905;BME280;4991;43.566;27.820;2022-07-21T13:35:06;98726.47;;;39.10;26.96
9905;BME280;4991;43.566;27.820;2022-07-21T13:37:32;98728.19;;;41.18;25.15
9905;BME280;4991;43.566;27.820;2022-07-21T13:39:57;98734.13;;;39.44;26.12
9905;BME280;4991;43.566;27.820;2022-07-21T13:42:23;98728.31;;;38.99;26.71